Archival Weather

NSFA McMurdo Sound

NSFA McMurdo Sound, Antarctica (NZCM)

Report from: Friday, September 23, 2022 12:46 PM UTC
Current time: Sunday, December 4, 2022 12:15 PM UTC

Current weather
Weather history
Weather forecast

Present weatherLight snow, mist
Temperature-19.8°C (-3.6°F)
Wind chill-32.2°C (-26.0°F)
Dew point-24.5°C (-12.1°F)
Winds 16 kts (8.2 m/s, 18.4 mph) East (80°)
Wind gusts 27 kts (13.9 m/s, 31.1 mph)
Peak wind 29 kts (14.9 m/s, 33.4 mph) East (80°) at 07:11
Visibility1.1 mi. (1.8 km)
Clouds Ceiling: Overcast 2,100 ft. (640 m)
Altimeter28.61 in.Hg (969 mB)
Precip. events Snow ended 11:56 AM
Snow began 11:59 AM
Snow ended 12:37 PM
Snow began 12:46 PM
Relative humidity66 %
Density altitude-2,865 ft. (-873 m)
Sea-level pressure107.0 kPa (1070 mB, 31.58 in.Hg)
Remarks Fully automated report
System requires maintenance
Special weather observation
Automated weather observing station with precipitation discriminator
Flight conditions Instrument Meteorological Conditions
Raw dataSPECI NZCM 231246Z AUTO 08016G27KT 1800 -SN BR OVC021 M20/M25 A2861 RMK AO2 PK WND 08029/1211 WSHFT 1156 SNE1156B1159E1237B1246 SLP695 T11981245 $
An error has occurred. This application may no longer respond until reloaded. Reload 🗙